Izmir, Turkey
Current Conditions -  °F | °C
As of 11:50 PM on Tuesday 25 Nov 2014 (Local Time) from LTBJ Reporting Station
Clear Clear  
Wind Chill: 38°   Ceiling: Unl
Heat Index: 46°   Visibility: 6mi
Dew Point: 36°   Wind: 23mph
Humidity: 66%   Direction: 360°N
Pressure: 30.06"   Gusts: NA
Location:  38.43°N, 27.15°E
Report Text: LTBJ 252050Z 36020KT CAVOK 08/02 Q1018 NOSIG
Loading
Personal Weather Stations






























Interactive Weather Map New forecast layout! Learn more

10-Day Weather Forecast

Advertisements
Track Severe Weather on mobile